Home   Weather   Spain   Salou   Past weeks
Flag for Spain

Past Weather in Salou, Tarragona, Spain — Yesterday and Last 2 Weeks

Currently: 72 °F. Passing clouds. (Weather station: Reus / Aeropuerto, Spain). See more current weather

Past Weather in Salou — Graph

°F

Salou Temperature Yesterday

Maximum temperature yesterday: 73 °F (at 4:30 pm)
Minimum temperature yesterday: 57 °F (at 12:30 am)
Average temperature yesterday: 65 °F

High & Low Weather Summary for the Past Weeks

 TemperatureHumidityPressure
High79 °F (May 5, 2:30 pm)100% (May 1, 5:30 am)30.21 "Hg (May 1, 5:30 am)
Low45 °F (May 4, 7:00 am)22% (May 11, 7:00 pm)29.71 "Hg (May 9, 4:00 pm)
Average62 °F68%29.96 "Hg
* Reported Apr 30 3:00 pm — May 15 3:30 pm, Salou. Weather by CustomWeather, © 2021

Note: Actual official high and low records may vary slightly from our data, if they occured in-between our weather recording intervals... More about our weather records

Salou Weather History for the Previous 24 Hours

Scroll right to see more
 ConditionsComfort  
Time TempWeatherWind HumidityBarometerVisibility
3:30 pm
Sat, May 15
72 °FPassing clouds.10 mph61%29.89 "HgN/A
2:30 pm72 °FPassing clouds.13 mph53%29.89 "HgN/A
2:00 pm72 °FPassing clouds.9 mph53%29.92 "HgN/A
1:30 pm70 °FPassing clouds.8 mph53%29.89 "HgN/A
1:00 pm70 °FPassing clouds.9 mph57%29.92 "HgN/A
12:30 pm68 °FPassing clouds.9 mph56%29.92 "HgN/A
11:30 am68 °FPassing clouds.9 mph56%29.92 "HgN/A
11:00 am72 °FPassing clouds.6 mph47%29.92 "HgN/A
10:30 am68 °FPassing clouds.3 mph49%29.92 "HgN/A
10:00 am66 °FPassing clouds.3 mph52%29.92 "HgN/A
9:30 am66 °FPassing clouds.1 mph52%29.95 "HgN/A
9:00 am63 °FPassing clouds.3 mph64%29.95 "HgN/A
8:30 am61 °FPassing clouds.3 mph63%29.95 "HgN/A
8:00 am59 °FPassing clouds.5 mph68%29.95 "HgN/A
7:30 am54 °FPassing clouds.5 mph88%29.95 "HgN/A
7:00 am52 °FPassing clouds.5 mph88%29.95 "HgN/A
6:30 am55 °FPassing clouds.6 mph77%29.95 "HgN/A
6:00 am57 °FClear.9 mph72%29.95 "Hg10 mi
5:30 am57 °FClear.7 mph77%29.95 "Hg10 mi
5:00 am55 °FClear.6 mph82%29.95 "Hg10 mi
4:30 am54 °FClear.5 mph88%29.98 "Hg10 mi
4:00 am54 °FClear.1 mph82%29.98 "Hg10 mi
3:30 am55 °FClear.2 mph77%29.98 "Hg10 mi
3:00 am55 °FClear.1 mph77%29.98 "Hg10 mi
2:30 am57 °FClear.1 mph82%29.98 "Hg10 mi
1:30 am61 °FPassing clouds.5 mph77%30.01 "HgN/A
1:00 am59 °FPassing clouds.6 mph82%30.01 "HgN/A
12:30 am61 °FPassing clouds.8 mph72%30.01 "HgN/A
12:00 am61 °FPassing clouds.3 mph77%30.01 "HgN/A
11:30 pm
Fri, May 14
63 °FPassing clouds.8 mph73%30.01 "HgN/A
11:00 pm64 °FPassing clouds.8 mph46%30.01 "HgN/A
10:30 pm66 °FClear.10 mph40%29.98 "Hg10 mi
10:00 pm66 °FPassing clouds.7 mph35%29.98 "HgN/A
9:30 pm66 °FClear.No wind35%29.95 "Hg10 mi
9:00 pm68 °FSunny.8 mph30%29.95 "Hg10 mi
8:30 pm70 °FPassing clouds.9 mph31%29.95 "HgN/A
8:00 pm72 °FPassing clouds.16 mph27%29.95 "HgN/A
7:30 pm72 °FPassing clouds.15 mph31%29.95 "HgN/A
7:00 pm73 °FPassing clouds.15 mph29%29.92 "HgN/A
6:30 pm73 °FPassing clouds.18 mph27%29.92 "HgN/A
6:00 pm73 °FPassing clouds.17 mph27%29.92 "HgN/A
5:30 pm73 °FPassing clouds.17 mph31%29.95 "HgN/A
5:00 pm73 °FPassing clouds.21 mph29%29.95 "HgN/A
4:30 pm73 °FPassing clouds.20 mph36%29.95 "HgN/A
4:00 pm72 °FPassing clouds.16 mph38%29.95 "HgN/A
Weather by CustomWeather, © 2021

See weather overview